createdAt,value
2023-04-28T00:04:39.237Z,26.8
2023-04-28T00:10:30.989Z,26.9
2023-04-28T00:16:22.245Z,26.8
2023-04-28T00:22:14.659Z,26.8
2023-04-28T00:28:05.808Z,26.8
2023-04-28T00:34:01.873Z,26.8
2023-04-28T00:39:53.757Z,26.8
2023-04-28T00:45:29.585Z,26.8
2023-04-28T00:51:05.930Z,26.8
2023-04-28T00:56:56.762Z,26.8
2023-04-28T01:02:33.446Z,26.8
2023-04-28T01:08:11.891Z,26.8
2023-04-28T01:14:03.474Z,26.8
2023-04-28T01:19:55.490Z,26.8
2023-04-28T01:25:46.368Z,26.8
2023-04-28T01:31:37.780Z,26.8
2023-04-28T01:37:29.060Z,26.7
2023-04-28T01:43:20.621Z,26.8
2023-04-28T01:49:12.666Z,26.7
2023-04-28T01:55:04.935Z,26.7
2023-04-28T02:00:57.308Z,26.7
2023-04-28T02:06:49.884Z,26.7
2023-04-28T02:12:41.213Z,26.7
2023-04-28T02:18:18.085Z,26.7
2023-04-28T02:23:56.372Z,26.6
2023-04-28T02:29:32.543Z,26.2
2023-04-28T02:35:24.307Z,26
2023-04-28T02:41:15.130Z,25.9
2023-04-28T02:47:06.927Z,25.9
2023-04-28T02:52:43.122Z,25.9
2023-04-28T02:58:35.017Z,25.8
2023-04-28T03:04:28.316Z,25.8
2023-04-28T03:10:05.058Z,25.8
2023-04-28T03:15:26.477Z,25.9
2023-04-28T03:21:02.725Z,25.8
2023-04-28T03:26:48.389Z,25.8
2023-04-28T03:32:23.706Z,25.8
2023-04-28T03:38:00.488Z,25.8
2023-04-28T03:43:54.232Z,25.8
2023-04-28T03:49:45.545Z,25.8
2023-04-28T03:55:36.726Z,25.8
2023-04-28T04:01:28.047Z,25.8
2023-04-28T04:07:23.312Z,25.8
2023-04-28T04:12:59.717Z,25.8
2023-04-28T04:18:52.479Z,25.8
2023-04-28T04:24:43.954Z,25.8
2023-04-28T04:30:35.353Z,25.8
2023-04-28T04:36:27.458Z,25.8
2023-04-28T04:42:33.255Z,25.8
2023-04-28T04:48:27.727Z,25.8
2023-04-28T04:54:22.056Z,25.8
2023-04-28T05:00:13.347Z,25.8
2023-04-28T05:06:22.250Z,25.8
2023-04-28T05:12:13.595Z,25.8
2023-04-28T05:18:08.675Z,25.8
2023-04-28T05:24:00.532Z,25.8
2023-04-28T05:29:52.629Z,25.8
2023-04-28T05:35:44.654Z,25.8
2023-04-28T05:41:36.442Z,25.8
2023-04-28T05:47:40.502Z,25.8
2023-04-28T05:53:32.394Z,25.8
2023-04-28T05:59:32.248Z,25.8
2023-04-28T06:05:11.798Z,25.8
2023-04-28T06:10:48.449Z,34.3
2023-04-28T06:16:24.801Z,31.6
2023-04-28T06:22:01.210Z,30.6
2023-04-28T06:27:23.457Z,29.9
2023-04-28T06:32:59.466Z,36.1
2023-04-28T06:38:22.325Z,36.3
2023-04-28T06:43:27.766Z,36.9
2023-04-28T06:48:51.957Z,37.6
2023-04-28T06:54:18.320Z,38.2
2023-04-28T07:00:11.106Z,38.8
2023-04-28T07:06:05.961Z,39.4
2023-04-28T07:12:00.232Z,40.1
2023-04-28T07:17:52.147Z,40.7
2023-04-28T07:23:43.762Z,41.3
2023-04-28T07:29:37.118Z,42.1
2023-04-28T07:35:47.359Z,42.8
2023-04-28T07:41:41.436Z,43.4
2023-04-28T07:47:33.592Z,44
2023-04-28T07:53:10.316Z,44.6
2023-04-28T07:59:01.545Z,45.3
2023-04-28T08:04:56.896Z,45.8
2023-04-28T08:10:48.702Z,46.3
2023-04-28T08:16:24.739Z,46.8
2023-04-28T08:22:19.698Z,47.4
2023-04-28T08:28:13.857Z,47.8
2023-04-28T08:33:34.798Z,48.1
2023-04-28T08:39:13.582Z,48.6
2023-04-28T08:44:51.128Z,48.9
2023-04-28T08:50:12.519Z,49.3
2023-04-28T08:56:05.091Z,49.8
2023-04-28T09:01:26.332Z,50.2
2023-04-28T09:07:06.309Z,50.6
2023-04-28T09:12:29.502Z,51
2023-04-28T09:17:50.749Z,51.4
2023-04-28T09:24:00.467Z,51.8
2023-04-28T09:29:36.616Z,52.3
2023-04-28T09:34:58.404Z,52.6
2023-04-28T09:40:52.191Z,53.1
2023-04-28T09:46:29.625Z,53.5
2023-04-28T09:52:05.588Z,53.9
2023-04-28T09:57:57.328Z,54.3
2023-04-28T10:05:47.001Z,54.6
2023-04-28T10:11:38.958Z,55.2
2023-04-28T10:17:15.221Z,55.5
2023-04-28T10:23:06.526Z,55.9
2023-04-28T10:28:59.899Z,56.2
2023-04-28T10:35:04.313Z,56.6
2023-04-28T10:41:05.221Z,56.9
2023-04-28T10:47:01.750Z,57.2
2023-04-28T10:53:07.021Z,57.5
2023-04-28T10:59:10.592Z,57.8
2023-04-28T11:05:03.834Z,58
2023-04-28T11:10:55.818Z,58.3
2023-04-28T11:16:49.696Z,58.4
2023-04-28T11:22:25.438Z,58.7
2023-04-28T11:28:17.021Z,58.9
2023-04-28T11:34:08.640Z,59.3
2023-04-28T11:40:01.169Z,59.5
2023-04-28T11:45:59.502Z,59.6
2023-04-28T11:51:52.553Z,59.8
2023-04-28T11:57:44.345Z,60
2023-04-28T12:03:39.507Z,60.1
2023-04-28T12:09:34.545Z,60.1
2023-04-28T12:15:42.805Z,60.2
2023-04-28T12:21:35.160Z,60.3
2023-04-28T12:27:11.433Z,60.3
2023-04-28T12:33:03.169Z,60.4
2023-04-28T12:38:56.486Z,60.4
2023-04-28T12:44:48.656Z,60.3
2023-04-28T12:50:41.748Z,60.1
2023-04-28T12:56:33.636Z,59.9
2023-04-28T13:02:10.091Z,59.8
2023-04-28T13:08:03.895Z,59.6
2023-04-28T13:14:06.391Z,59.5
2023-04-28T13:19:58.556Z,59.3
2023-04-28T13:25:37.458Z,58.9
2023-04-28T13:31:13.789Z,58.7
2023-04-28T13:37:04.957Z,58.4
2023-04-28T13:42:57.879Z,58
2023-04-28T13:48:49.653Z,57.7
2023-04-28T13:54:40.534Z,57.3
2023-04-28T14:00:32.297Z,56.9
2023-04-28T14:06:22.873Z,56.4
2023-04-28T14:12:16.508Z,55.9
2023-04-28T14:18:19.653Z,55.4
2023-04-28T14:24:10.647Z,54.8
2023-04-28T14:30:02.355Z,54.3
2023-04-28T14:35:54.573Z,53.6
2023-04-28T14:41:31.497Z,51.9
2023-04-28T14:47:23.350Z,49.1
2023-04-28T14:53:15.148Z,47.3
2023-04-28T14:59:09.245Z,45.9
2023-04-28T15:05:03.155Z,44.5
2023-04-28T15:10:42.516Z,42.9
2023-04-28T15:16:34.662Z,42
2023-04-28T15:22:27.421Z,41.3
2023-04-28T15:28:19.608Z,40.8
2023-04-28T15:34:13.022Z,40.4
2023-04-28T15:40:08.250Z,40.1
2023-04-28T15:45:59.836Z,39.8
2023-04-28T15:51:52.535Z,39.4
2023-04-28T15:57:44.693Z,39.2
2023-04-28T16:03:37.846Z,38.9
2023-04-28T16:09:30.497Z,38.7
2023-04-28T16:15:22.791Z,38.6
2023-04-28T16:21:15.439Z,38.3
2023-04-28T16:26:53.632Z,38.2
2023-04-28T16:32:46.159Z,38
2023-04-28T16:38:38.606Z,37.9
2023-04-28T16:44:31.292Z,37.8
2023-04-28T16:50:23.912Z,37.6
2023-04-28T16:56:17.152Z,37.4
2023-04-28T17:02:09.355Z,37.3
2023-04-28T17:07:32.152Z,37.2
2023-04-28T17:13:26.416Z,37.1
2023-04-28T17:19:18.990Z,36.9
2023-04-28T17:25:11.401Z,36.8
2023-04-28T17:31:04.312Z,36.7
2023-04-28T17:36:58.435Z,36.6
2023-04-28T17:42:50.265Z,36.5
2023-04-28T17:48:42.612Z,36.4
2023-04-28T17:54:36.362Z,36.3
2023-04-28T18:00:28.282Z,36.2
2023-04-28T18:06:24.543Z,36.1
2023-04-28T18:12:16.738Z,36
2023-04-28T18:18:11.717Z,35.9
2023-04-28T18:24:06.040Z,35.8
2023-04-28T18:29:58.111Z,35.7
2023-04-28T18:35:53.570Z,34.8
2023-04-28T18:41:45.612Z,34.3
2023-04-28T18:47:39.784Z,34
2023-04-28T18:53:32.655Z,33.9
2023-04-28T18:59:24.406Z,33.8
2023-04-28T19:05:18.213Z,33.6
2023-04-28T19:10:59.333Z,33.5
2023-04-28T19:16:51.047Z,32.6
2023-04-28T19:22:43.195Z,32.3
2023-04-28T19:28:35.637Z,32.1
2023-04-28T19:34:28.058Z,32
2023-04-28T19:40:20.490Z,31.9
2023-04-28T19:46:12.940Z,31.9
2023-04-28T19:52:05.948Z,31.9
2023-04-28T19:57:43.374Z,31.9
2023-04-28T20:03:23.699Z,31.9
2023-04-28T20:09:18.313Z,31.8
2023-04-28T20:14:54.838Z,31.8
2023-04-28T20:20:46.864Z,31.8
2023-04-28T20:26:38.743Z,31.8
2023-04-28T20:32:31.526Z,31.8
2023-04-28T20:38:23.370Z,31.8
2023-04-28T20:44:14.857Z,31.8
2023-04-28T20:50:09.464Z,31.8
2023-04-28T20:56:02.096Z,31.7
2023-04-28T21:01:54.331Z,31.7
2023-04-28T21:07:48.081Z,31.7
2023-04-28T21:13:39.044Z,31.7
2023-04-28T21:19:30.677Z,31.7
2023-04-28T21:25:07.420Z,31.6
2023-04-28T21:30:58.442Z,31.6
2023-04-28T21:36:50.426Z,31.6
2023-04-28T21:42:26.483Z,31.6
2023-04-28T21:48:18.946Z,31.6
2023-04-28T21:53:39.115Z,31.6
2023-04-28T21:59:30.921Z,31.6
2023-04-28T22:05:09.601Z,31.6
2023-04-28T22:11:01.214Z,31.6
2023-04-28T22:17:08.818Z,31.5
2023-04-28T22:23:00.805Z,31.5
2023-04-28T22:28:51.998Z,31.5
2023-04-28T22:34:28.042Z,31.5
2023-04-28T22:40:04.203Z,31.4
2023-04-28T22:45:40.114Z,31.4
2023-04-28T22:51:31.705Z,31.4
2023-04-28T22:57:26.062Z,31.4
2023-04-28T23:03:02.687Z,31.4
2023-04-28T23:08:56.122Z,31.4
2023-04-28T23:14:32.063Z,31.3
2023-04-28T23:20:26.390Z,31.4
2023-04-28T23:26:17.868Z,31.3
2023-04-28T23:31:53.885Z,31.3
2023-04-28T23:37:30.378Z,31.3
2023-04-28T23:43:06.796Z,31.3
2023-04-28T23:48:43.274Z,31.3
2023-04-28T23:54:33.919Z,31.3
